createdAt,value
2023-04-17T00:01:48.009Z,30.57
2023-04-17T00:04:15.151Z,30.87
2023-04-17T00:06:46.062Z,33.57
2023-04-17T00:09:13.074Z,32.13
2023-04-17T00:11:40.148Z,33.33
2023-04-17T00:14:07.152Z,32.53
2023-04-17T00:16:34.084Z,32.57
2023-04-17T00:19:01.050Z,32.23
2023-04-17T00:21:30.089Z,30.53
2023-04-17T00:23:57.116Z,30.30
2023-04-17T00:26:26.951Z,32.83
2023-04-17T00:28:53.987Z,32.80
2023-04-17T00:31:21.041Z,31.57
2023-04-17T00:33:47.844Z,31.37
2023-04-17T00:36:16.674Z,30.07
2023-04-17T00:38:43.650Z,29.63
2023-04-17T00:41:11.565Z,28.70
2023-04-17T00:43:39.218Z,32.07
2023-04-17T00:46:06.451Z,34.30
2023-04-17T00:48:34.572Z,35.27
2023-04-17T00:51:03.516Z,31.70
2023-04-17T00:53:34.309Z,32.57
2023-04-17T00:56:03.735Z,33.33
2023-04-17T00:58:31.454Z,35.30
2023-04-17T01:00:58.391Z,32.80
2023-04-17T01:03:25.869Z,32.77
2023-04-17T01:05:53.129Z,32.47
2023-04-17T01:08:21.521Z,35.33
2023-04-17T01:10:48.552Z,34.07
2023-04-17T01:13:15.878Z,34.93
2023-04-17T01:15:43.226Z,38.93
2023-04-17T01:18:10.282Z,39.43
2023-04-17T01:20:37.826Z,38.83
2023-04-17T01:23:04.669Z,42.67
2023-04-17T01:25:31.637Z,40.63
2023-04-17T01:27:58.711Z,36.00
2023-04-17T01:30:25.684Z,35.20
2023-04-17T01:32:55.463Z,34.67
2023-04-17T01:35:23.310Z,36.47
2023-04-17T01:37:50.505Z,35.07
2023-04-17T01:40:17.427Z,35.47
2023-04-17T01:42:44.469Z,38.47
2023-04-17T01:45:11.964Z,40.23
2023-04-17T01:47:39.012Z,37.70
2023-04-17T01:50:09.347Z,36.00
2023-04-17T01:52:36.698Z,36.13
2023-04-17T01:55:04.443Z,37.43
2023-04-17T01:57:33.224Z,36.83
2023-04-17T02:00:00.218Z,33.73
2023-04-17T02:02:27.410Z,34.27
2023-04-17T02:04:56.791Z,34.40
2023-04-17T02:07:23.599Z,35.70
2023-04-17T02:09:50.525Z,35.07
2023-04-17T02:12:17.311Z,40.10
2023-04-17T02:14:44.203Z,38.27
2023-04-17T02:17:11.055Z,36.77
2023-04-17T02:19:38.078Z,36.07
2023-04-17T02:22:05.244Z,34.27
2023-04-17T02:24:32.228Z,35.23
2023-04-17T02:26:59.172Z,36.77
2023-04-17T02:29:26.247Z,38.23
2023-04-17T02:31:53.572Z,39.67
2023-04-17T02:34:20.424Z,36.30
2023-04-17T02:36:47.263Z,39.00
2023-04-17T02:39:17.473Z,40.27
2023-04-17T02:41:44.558Z,38.53
2023-04-17T02:44:11.565Z,40.20
2023-04-17T02:46:38.489Z,37.97
2023-04-17T02:49:05.635Z,40.67
2023-04-17T02:51:32.626Z,40.80
2023-04-17T02:53:59.393Z,46.30
2023-04-17T02:56:26.402Z,44.57
2023-04-17T02:58:53.402Z,38.80
2023-04-17T03:01:20.279Z,40.53
2023-04-17T03:03:48.053Z,37.67
2023-04-17T03:06:15.473Z,42.03
2023-04-17T03:08:42.351Z,39.40
2023-04-17T03:11:09.424Z,39.20
2023-04-17T03:13:39.521Z,33.10
2023-04-17T03:16:06.869Z,41.03
2023-04-17T03:18:36.047Z,42.73
2023-04-17T03:21:02.992Z,38.13
2023-04-17T03:23:30.181Z,38.37
2023-04-17T03:25:59.343Z,39.53
2023-04-17T03:28:26.423Z,39.83
2023-04-17T03:30:55.067Z,43.20
2023-04-17T03:33:22.644Z,40.07
2023-04-17T03:35:49.667Z,43.23
2023-04-17T03:38:17.157Z,44.57
2023-04-17T03:40:44.366Z,40.87
2023-04-17T03:43:11.557Z,40.50
2023-04-17T03:45:38.482Z,43.83
2023-04-17T03:48:06.317Z,42.00
2023-04-17T03:50:33.276Z,42.90
2023-04-17T03:53:00.324Z,46.57
2023-04-17T03:55:27.310Z,50.67
2023-04-17T03:57:54.254Z,45.10
2023-04-17T04:00:24.148Z,50.53
2023-04-17T04:02:51.199Z,49.03
2023-04-17T04:05:18.317Z,50.67
2023-04-17T04:07:45.365Z,46.40
2023-04-17T04:10:12.396Z,55.23
2023-04-17T04:12:39.257Z,51.13
2023-04-17T04:15:06.800Z,53.93
2023-04-17T04:17:33.621Z,58.30
2023-04-17T04:20:00.642Z,60.50
2023-04-17T04:22:28.167Z,60.70
2023-04-17T04:24:55.082Z,58.67
2023-04-17T04:27:22.935Z,62.97
2023-04-17T04:29:50.564Z,59.87
2023-04-17T04:32:17.468Z,58.23
2023-04-17T04:34:44.911Z,55.97
2023-04-17T04:37:16.142Z,58.47
2023-04-17T04:39:43.490Z,56.90
2023-04-17T04:42:10.607Z,57.50
2023-04-17T04:44:37.779Z,56.33
2023-04-17T04:47:04.840Z,59.30
2023-04-17T04:49:31.894Z,59.27
2023-04-17T04:51:58.945Z,62.77
2023-04-17T04:54:26.050Z,56.33
2023-04-17T04:56:53.014Z,57.20
2023-04-17T04:59:20.084Z,56.27
2023-04-17T05:01:48.069Z,52.83
2023-04-17T05:04:15.305Z,55.33
2023-04-17T05:06:42.369Z,57.13
2023-04-17T05:09:09.551Z,55.93
2023-04-17T05:11:36.780Z,52.40
2023-04-17T05:14:03.618Z,54.53
2023-04-17T05:16:31.148Z,55.37
2023-04-17T05:18:57.983Z,61.40
2023-04-17T05:21:25.330Z,60.87
2023-04-17T05:23:52.273Z,56.53
2023-04-17T05:26:22.420Z,53.77
2023-04-17T05:28:49.678Z,56.60
2023-04-17T05:31:17.327Z,51.83
2023-04-17T05:33:44.162Z,50.13
2023-04-17T05:36:11.129Z,50.10
2023-04-17T05:38:38.124Z,52.63
2023-04-17T05:41:07.736Z,43.27
2023-04-17T05:43:34.756Z,45.00
2023-04-17T05:46:02.221Z,43.57
2023-04-17T05:48:30.151Z,41.53
2023-04-17T05:50:57.215Z,40.20
2023-04-17T05:53:24.413Z,39.13
2023-04-17T05:55:51.372Z,39.60
2023-04-17T05:58:23.584Z,43.87
2023-04-17T06:00:52.638Z,39.50
2023-04-17T06:03:20.667Z,37.73
2023-04-17T06:05:48.528Z,36.13
2023-04-17T06:08:15.831Z,34.07
2023-04-17T06:10:46.231Z,39.23
2023-04-17T06:13:13.030Z,36.40
2023-04-17T06:15:39.937Z,37.73
2023-04-17T06:18:08.243Z,37.87
2023-04-17T06:20:35.265Z,37.63
2023-04-17T06:23:02.298Z,35.43
2023-04-17T06:25:29.106Z,33.33
2023-04-17T06:27:56.005Z,34.03
2023-04-17T06:30:22.975Z,31.40
2023-04-17T06:32:49.937Z,32.33
2023-04-17T06:35:16.808Z,30.07
2023-04-17T06:37:43.690Z,28.77
2023-04-17T06:40:12.561Z,30.63
2023-04-17T06:42:39.462Z,28.93
2023-04-17T06:45:07.297Z,27.47
2023-04-17T06:47:34.201Z,26.63
2023-04-17T06:50:01.083Z,26.13
2023-04-17T06:52:27.966Z,25.47
2023-04-17T06:54:55.562Z,24.60
2023-04-17T06:57:22.935Z,23.63
2023-04-17T06:59:49.752Z,22.13
2023-04-17T07:02:16.903Z,21.93
2023-04-17T07:04:44.046Z,21.20
2023-04-17T07:07:11.369Z,18.93
2023-04-17T07:09:38.606Z,21.20
2023-04-17T07:12:05.708Z,19.30
2023-04-17T07:14:33.705Z,19.43
2023-04-17T07:17:00.842Z,20.00
2023-04-17T07:19:27.805Z,19.80
2023-04-17T07:21:54.771Z,18.93
2023-04-17T07:24:21.799Z,18.90
2023-04-17T07:26:49.754Z,19.03
2023-04-17T07:29:17.310Z,18.67
2023-04-17T07:31:44.447Z,17.20
2023-04-17T07:34:11.531Z,17.90
2023-04-17T07:36:38.368Z,18.17
2023-04-17T07:39:06.791Z,16.07
2023-04-17T07:41:33.893Z,15.47
2023-04-17T07:44:03.488Z,16.27
2023-04-17T07:46:30.926Z,15.93
2023-04-17T07:48:59.069Z,16.40
2023-04-17T07:51:26.412Z,15.30
2023-04-17T07:53:53.361Z,15.20
2023-04-17T07:56:20.357Z,14.90
2023-04-17T07:58:47.308Z,16.40
2023-04-17T08:01:14.412Z,15.70
2023-04-17T08:03:42.171Z,15.53
2023-04-17T08:06:09.053Z,16.40
2023-04-17T08:08:36.525Z,15.33
2023-04-17T08:11:04.447Z,15.47
2023-04-17T08:13:34.204Z,14.77
2023-04-17T08:16:01.728Z,14.77
2023-04-17T08:18:28.593Z,15.13
2023-04-17T08:20:56.042Z,14.17
2023-04-17T08:23:23.112Z,14.07
2023-04-17T08:25:50.218Z,15.27
2023-04-17T08:28:17.252Z,15.27
2023-04-17T08:30:44.550Z,13.70
2023-04-17T08:33:13.627Z,15.23
2023-04-17T08:35:42.882Z,12.00
2023-04-17T08:38:14.219Z,12.20
2023-04-17T08:40:47.382Z,13.00
2023-04-17T08:43:21.095Z,11.77
2023-04-17T08:45:56.920Z,12.97
2023-04-17T08:48:24.908Z,12.57
2023-04-17T08:50:53.984Z,12.87
2023-04-17T08:53:21.692Z,15.07
2023-04-17T08:55:49.086Z,16.33
2023-04-17T08:58:16.137Z,18.83
2023-04-17T09:00:45.129Z,15.50
2023-04-17T09:03:14.413Z,14.70
2023-04-17T09:05:46.102Z,17.00
2023-04-17T09:08:26.392Z,16.00
2023-04-17T09:10:55.438Z,13.60
2023-04-17T09:13:25.551Z,11.10
2023-04-17T09:16:10.070Z,12.63
2023-04-17T09:18:38.039Z,11.67
2023-04-17T09:21:06.583Z,10.43
2023-04-17T09:23:56.617Z,11.00
2023-04-17T09:26:28.068Z,9.53
2023-04-17T09:29:12.135Z,10.67
2023-04-17T09:31:41.451Z,11.30
2023-04-17T09:34:16.800Z,11.00
2023-04-17T09:36:44.900Z,9.27
2023-04-17T09:39:21.021Z,11.57
2023-04-17T09:41:48.172Z,11.10
2023-04-17T09:44:28.894Z,9.57
2023-04-17T09:46:56.111Z,9.90
2023-04-17T09:49:49.610Z,11.77
2023-04-17T09:52:17.198Z,8.53
2023-04-17T09:54:46.551Z,11.63
2023-04-17T09:57:13.717Z,9.37
2023-04-17T09:59:42.083Z,9.40
2023-04-17T10:02:09.870Z,8.00
2023-04-17T10:04:41.927Z,8.67
2023-04-17T10:07:09.200Z,8.70
2023-04-17T10:09:36.467Z,9.10
2023-04-17T10:12:05.723Z,9.47
2023-04-17T10:14:37.885Z,8.13
2023-04-17T10:17:25.140Z,11.17
2023-04-17T10:19:52.442Z,8.83
2023-04-17T10:22:19.362Z,8.87
2023-04-17T10:24:53.998Z,8.63
2023-04-17T10:27:26.757Z,8.97
2023-04-17T10:29:58.324Z,8.57
2023-04-17T10:32:28.954Z,8.33
2023-04-17T10:35:00.966Z,10.73
2023-04-17T10:37:52.475Z,9.67
2023-04-17T10:40:22.968Z,10.97
2023-04-17T10:43:12.489Z,11.90
2023-04-17T10:46:04.737Z,10.73
2023-04-17T10:48:41.144Z,11.50
2023-04-17T10:51:27.430Z,10.60
2023-04-17T10:54:01.185Z,11.73
2023-04-17T10:56:35.659Z,19.33
2023-04-17T10:59:05.241Z,23.60
2023-04-17T11:01:37.319Z,11.17
2023-04-17T11:04:05.335Z,8.67
2023-04-17T11:06:38.269Z,10.03
2023-04-17T11:09:09.356Z,10.23
2023-04-17T11:11:44.574Z,7.83
2023-04-17T11:14:17.923Z,53.80
2023-04-17T11:16:47.861Z,9.60
2023-04-17T11:19:19.983Z,12.03
2023-04-17T11:21:49.078Z,10.03
2023-04-17T11:24:30.418Z,18.23
2023-04-17T11:27:00.250Z,9.77
2023-04-17T11:29:27.802Z,8.90
2023-04-17T11:31:56.659Z,13.23
2023-04-17T11:34:26.201Z,11.23
2023-04-17T11:36:56.338Z,13.27
2023-04-17T11:39:29.106Z,17.00
2023-04-17T11:41:59.588Z,14.47
2023-04-17T11:44:26.879Z,13.23
2023-04-17T11:46:54.998Z,15.40
2023-04-17T11:49:29.670Z,27.73
2023-04-17T11:52:02.292Z,35.27
2023-04-17T11:54:31.378Z,23.53
2023-04-17T11:57:00.286Z,17.90
2023-04-17T11:59:38.305Z,18.50
2023-04-17T12:02:07.858Z,10.07
2023-04-17T12:04:40.047Z,12.60
2023-04-17T12:07:09.134Z,11.93
2023-04-17T12:09:36.918Z,12.20
2023-04-17T12:12:07.921Z,12.33
2023-04-17T12:14:35.099Z,13.27
2023-04-17T12:17:02.010Z,12.10
2023-04-17T12:19:30.027Z,11.60
2023-04-17T12:21:57.650Z,13.27
2023-04-17T12:24:25.671Z,11.80
2023-04-17T12:26:53.340Z,13.37
2023-04-17T12:29:29.369Z,11.47
2023-04-17T12:32:08.112Z,10.67
2023-04-17T12:34:35.308Z,14.87
2023-04-17T12:37:02.247Z,10.23
2023-04-17T12:39:30.132Z,9.90
2023-04-17T12:41:57.216Z,11.13
2023-04-17T12:44:24.165Z,8.83
2023-04-17T12:46:50.997Z,11.23
2023-04-17T12:49:17.942Z,9.50
2023-04-17T12:51:44.820Z,8.10
2023-04-17T12:54:12.141Z,13.57
2023-04-17T12:56:39.157Z,13.57
2023-04-17T12:59:06.171Z,10.93
2023-04-17T13:01:33.188Z,13.63
2023-04-17T13:04:01.570Z,12.70
2023-04-17T13:06:28.763Z,13.07
2023-04-17T13:08:55.666Z,9.37
2023-04-17T13:11:22.734Z,10.87
2023-04-17T13:13:49.564Z,10.03
2023-04-17T13:16:16.651Z,12.37
2023-04-17T13:18:43.351Z,11.57
2023-04-17T13:21:10.271Z,11.40
2023-04-17T13:23:37.294Z,12.53
2023-04-17T13:26:04.642Z,12.40
2023-04-17T13:28:31.729Z,13.17
2023-04-17T13:30:58.744Z,10.63
2023-04-17T13:33:25.819Z,10.00
2023-04-17T13:35:54.134Z,13.97
2023-04-17T13:38:20.993Z,12.03
2023-04-17T13:40:47.898Z,14.67
2023-04-17T13:43:14.930Z,13.23
2023-04-17T13:45:42.034Z,21.97
2023-04-17T13:48:10.014Z,10.97
2023-04-17T13:50:37.157Z,14.63
2023-04-17T13:53:04.094Z,9.73
2023-04-17T13:55:31.043Z,11.97
2023-04-17T13:57:58.055Z,10.70
2023-04-17T14:00:25.104Z,8.63
2023-04-17T14:02:52.180Z,11.27
2023-04-17T14:05:19.126Z,9.73
2023-04-17T14:07:46.081Z,13.67
2023-04-17T14:10:13.583Z,11.30
2023-04-17T14:12:40.788Z,10.33
2023-04-17T14:15:08.354Z,13.77
2023-04-17T14:17:38.261Z,11.50
2023-04-17T14:20:06.255Z,14.93
2023-04-17T14:22:33.068Z,8.43
2023-04-17T14:24:59.925Z,11.27
2023-04-17T14:27:27.236Z,10.90
2023-04-17T14:29:54.142Z,7.80
2023-04-17T14:32:21.190Z,10.73
2023-04-17T14:34:48.102Z,9.13
2023-04-17T14:37:15.001Z,10.33
2023-04-17T14:39:44.636Z,7.40
2023-04-17T14:42:11.489Z,14.37
2023-04-17T14:44:38.337Z,10.43
2023-04-17T14:47:05.598Z,13.43
2023-04-17T14:49:32.466Z,10.37
2023-04-17T14:51:59.456Z,10.30
2023-04-17T14:54:26.702Z,14.73
2023-04-17T14:56:54.574Z,12.33
2023-04-17T14:59:21.710Z,12.37
2023-04-17T15:01:48.656Z,11.80
2023-04-17T15:04:16.326Z,13.13
2023-04-17T15:06:43.351Z,12.43
2023-04-17T15:09:10.853Z,11.40
2023-04-17T15:11:37.923Z,12.57
2023-04-17T15:14:05.127Z,9.80
2023-04-17T15:16:32.066Z,7.93
2023-04-17T15:18:58.894Z,9.50
2023-04-17T15:21:26.820Z,11.53
2023-04-17T15:23:53.561Z,9.87
2023-04-17T15:26:20.386Z,8.70
2023-04-17T15:28:47.327Z,11.23
2023-04-17T15:31:14.312Z,11.27
2023-04-17T15:33:41.588Z,8.63
2023-04-17T15:36:08.567Z,9.70
2023-04-17T15:38:35.555Z,9.87
2023-04-17T15:41:03.756Z,12.23
2023-04-17T15:43:31.087Z,8.40
2023-04-17T15:46:02.412Z,15.97
2023-04-17T15:48:29.622Z,12.57
2023-04-17T15:50:56.422Z,9.63
2023-04-17T15:53:23.480Z,8.63
2023-04-17T15:55:50.434Z,9.10
2023-04-17T15:58:17.244Z,10.67
2023-04-17T16:00:44.167Z,9.63
2023-04-17T16:03:12.267Z,9.80
2023-04-17T16:05:39.223Z,10.60
2023-04-17T16:08:06.255Z,12.60
2023-04-17T16:10:35.000Z,12.03
2023-04-17T16:13:02.128Z,17.90
2023-04-17T16:15:28.858Z,11.47
2023-04-17T16:17:55.912Z,12.70
2023-04-17T16:20:23.270Z,12.30
2023-04-17T16:22:51.940Z,11.17
2023-04-17T16:25:20.651Z,15.43
2023-04-17T16:27:47.724Z,9.30
2023-04-17T16:30:15.093Z,11.07
2023-04-17T16:32:42.433Z,13.97
2023-04-17T16:35:09.601Z,11.10
2023-04-17T16:37:36.549Z,10.03
2023-04-17T16:40:05.351Z,11.10
2023-04-17T16:42:32.943Z,10.93
2023-04-17T16:45:00.276Z,10.07
2023-04-17T16:47:30.003Z,8.87
2023-04-17T16:49:57.294Z,11.03
2023-04-17T16:52:24.128Z,10.83
2023-04-17T16:54:51.075Z,12.10
2023-04-17T16:57:18.612Z,10.57
2023-04-17T16:59:45.498Z,11.63
2023-04-17T17:02:12.544Z,11.63
2023-04-17T17:04:39.443Z,10.83
2023-04-17T17:07:06.597Z,13.40
2023-04-17T17:09:33.521Z,11.83
2023-04-17T17:12:00.820Z,12.60
2023-04-17T17:14:27.686Z,14.17
2023-04-17T17:16:54.638Z,10.57
2023-04-17T17:19:21.849Z,14.63
2023-04-17T17:21:50.145Z,10.07
2023-04-17T17:24:17.140Z,11.63
2023-04-17T17:26:43.934Z,12.97
2023-04-17T17:29:14.093Z,12.93
2023-04-17T17:31:41.143Z,13.77
2023-04-17T17:34:22.445Z,13.00
2023-04-17T17:36:53.152Z,10.93
2023-04-17T17:39:21.385Z,18.93
2023-04-17T17:41:48.739Z,10.80
2023-04-17T17:44:15.858Z,12.60
2023-04-17T17:46:42.868Z,11.00
2023-04-17T17:49:10.071Z,14.10
2023-04-17T17:51:36.942Z,11.03
2023-04-17T17:54:04.087Z,9.63
2023-04-17T17:56:31.071Z,10.60
2023-04-17T17:58:58.158Z,16.47
2023-04-17T18:01:25.220Z,11.63
2023-04-17T18:03:53.583Z,13.20
2023-04-17T18:06:21.509Z,15.43
2023-04-17T18:08:48.556Z,13.00
2023-04-17T18:11:15.526Z,12.77
2023-04-17T18:13:42.402Z,11.40
2023-04-17T18:16:09.621Z,11.53
2023-04-17T18:18:36.686Z,14.03
2023-04-17T18:21:09.840Z,11.70
2023-04-17T18:23:36.901Z,13.30
2023-04-17T18:26:04.499Z,16.40
2023-04-17T18:28:31.334Z,14.57
2023-04-17T18:30:58.422Z,13.23
2023-04-17T18:33:25.331Z,14.17
2023-04-17T18:35:52.190Z,11.37
2023-04-17T18:38:19.168Z,20.47
2023-04-17T18:40:46.155Z,15.47
2023-04-17T18:43:13.272Z,16.37
2023-04-17T18:45:40.828Z,11.53
2023-04-17T18:48:07.958Z,12.77
2023-04-17T18:50:34.922Z,12.50
2023-04-17T18:53:02.482Z,17.33
2023-04-17T18:55:29.836Z,13.17
2023-04-17T18:57:56.875Z,11.93
2023-04-17T19:00:23.995Z,12.37
2023-04-17T19:02:51.181Z,11.37
2023-04-17T19:05:20.541Z,16.83
2023-04-17T19:07:52.130Z,12.37
2023-04-17T19:10:19.118Z,13.80
2023-04-17T19:12:48.079Z,13.43
2023-04-17T19:15:17.641Z,16.03
2023-04-17T19:17:45.223Z,13.57
2023-04-17T19:20:12.397Z,15.97
2023-04-17T19:22:39.409Z,13.17
2023-04-17T19:25:06.636Z,15.23
2023-04-17T19:27:33.586Z,12.67
2023-04-17T19:30:00.575Z,14.77
2023-04-17T19:32:28.625Z,15.33
2023-04-17T19:34:56.054Z,14.17
2023-04-17T19:37:22.875Z,12.43
2023-04-17T19:39:50.198Z,14.13
2023-04-17T19:42:18.557Z,17.13
2023-04-17T19:44:46.561Z,15.53
2023-04-17T19:47:13.516Z,12.77
2023-04-17T19:49:40.848Z,12.77
2023-04-17T19:52:07.675Z,13.30
2023-04-17T19:54:34.626Z,12.47
2023-04-17T19:57:02.707Z,13.53
2023-04-17T19:59:29.815Z,12.40
2023-04-17T20:01:56.668Z,12.53
2023-04-17T20:04:23.665Z,15.10
2023-04-17T20:06:50.651Z,12.60
2023-04-17T20:09:17.561Z,11.83
2023-04-17T20:11:44.719Z,14.00
2023-04-17T20:14:14.859Z,14.77
2023-04-17T20:16:42.448Z,13.83
2023-04-17T20:19:09.794Z,13.17
2023-04-17T20:21:37.169Z,13.47
2023-04-17T20:24:04.316Z,13.27
2023-04-17T20:26:31.092Z,13.47
2023-04-17T20:28:58.051Z,14.30
2023-04-17T20:31:25.144Z,12.57
2023-04-17T20:33:52.146Z,12.33
2023-04-17T20:36:18.918Z,13.47
2023-04-17T20:38:48.390Z,12.30
2023-04-17T20:41:15.266Z,15.07
2023-04-17T20:43:42.175Z,13.87
2023-04-17T20:46:09.222Z,15.40
2023-04-17T20:48:36.284Z,15.50
2023-04-17T20:51:05.915Z,15.53
2023-04-17T20:53:33.188Z,15.33
2023-04-17T20:56:00.176Z,15.43
2023-04-17T20:58:27.191Z,18.90
2023-04-17T21:01:01.324Z,14.10
2023-04-17T21:03:32.180Z,16.13
2023-04-17T21:06:01.281Z,17.73
2023-04-17T21:08:28.293Z,17.50
2023-04-17T21:10:55.062Z,14.27
2023-04-17T21:13:23.069Z,19.60
2023-04-17T21:15:50.295Z,17.83
2023-04-17T21:18:17.189Z,16.70
2023-04-17T21:20:44.199Z,17.07
2023-04-17T21:23:11.161Z,19.90
2023-04-17T21:25:38.105Z,17.00
2023-04-17T21:28:05.011Z,15.73
2023-04-17T21:30:32.049Z,17.97
2023-04-17T21:32:59.224Z,18.30
2023-04-17T21:35:26.092Z,18.20
2023-04-17T21:37:53.068Z,16.53
2023-04-17T21:40:20.068Z,17.57
2023-04-17T21:42:46.789Z,17.90
2023-04-17T21:45:15.086Z,17.00
2023-04-17T21:47:42.080Z,20.57
2023-04-17T21:50:09.766Z,17.23
2023-04-17T21:52:36.799Z,19.63
2023-04-17T21:55:05.787Z,18.07
2023-04-17T21:57:32.748Z,21.63
2023-04-17T21:59:59.914Z,17.40
2023-04-17T22:02:26.716Z,19.93
2023-04-17T22:04:54.364Z,18.30
2023-04-17T22:07:21.817Z,16.97
2023-04-17T22:09:48.836Z,19.87
2023-04-17T22:12:20.966Z,16.83
2023-04-17T22:14:51.220Z,18.07
2023-04-17T22:17:18.222Z,16.37
2023-04-17T22:19:45.047Z,22.13
2023-04-17T22:22:11.821Z,20.97
2023-04-17T22:24:38.701Z,19.33
2023-04-17T22:27:05.568Z,15.67
2023-04-17T22:29:32.411Z,19.37
2023-04-17T22:31:59.242Z,18.43
2023-04-17T22:34:26.151Z,20.03
2023-04-17T22:36:52.988Z,16.70
2023-04-17T22:39:19.697Z,17.87
2023-04-17T22:41:46.573Z,18.73
2023-04-17T22:44:13.920Z,18.60
2023-04-17T22:46:41.289Z,16.40
2023-04-17T22:49:11.392Z,20.53
2023-04-17T22:51:38.834Z,16.17
2023-04-17T22:54:18.958Z,17.23
2023-04-17T22:56:48.795Z,16.10
2023-04-17T22:59:15.799Z,15.53
2023-04-17T23:01:42.834Z,17.20
2023-04-17T23:04:10.873Z,17.77
2023-04-17T23:06:37.769Z,17.87
2023-04-17T23:09:05.206Z,16.67
2023-04-17T23:11:33.280Z,14.93
2023-04-17T23:14:02.372Z,19.53
2023-04-17T23:16:32.309Z,17.80
2023-04-17T23:18:59.507Z,15.10
2023-04-17T23:21:26.543Z,15.63
2023-04-17T23:23:53.509Z,17.27
2023-04-17T23:26:20.353Z,19.87
2023-04-17T23:28:47.590Z,19.07
2023-04-17T23:31:14.520Z,19.20
2023-04-17T23:33:41.364Z,17.07
2023-04-17T23:36:08.582Z,18.97
2023-04-17T23:38:35.575Z,19.10
2023-04-17T23:41:02.335Z,21.10
2023-04-17T23:43:29.301Z,18.93
2023-04-17T23:45:57.931Z,17.67
2023-04-17T23:48:24.712Z,22.40
2023-04-17T23:50:51.783Z,21.27
2023-04-17T23:53:18.726Z,19.17
2023-04-17T23:55:45.723Z,21.73
2023-04-17T23:58:12.536Z,19.27
